Time;durP1;ratioP1;P1;durP2;ratioP2;P2;SDS_P1;SDS_P2;PMS_P1;PMS_P2;Temp;Humidity;BMP_temperature;BMP_pressure;BME280_temperature;BME280_humidity;BME280_pressure;Samples;Min_cycle;Max_cycle;Signal;HPM_P1;HPM_P2
2023/09/03 00:02:14;;;;;;;;;;;;;;;16.40;100.00;96324.00;10532625;28;1106;-78
2023/09/03 00:07:16;;;;;;;;;;;;;;;16.23;100.00;96318.34;10539844;28;1969;-78
2023/09/03 00:12:18;;;;;;;;;;;;;;;16.10;100.00;96320.72;10548753;28;1309;-78
2023/09/03 00:17:21;;;;;;;;;;;;;;;16.20;100.00;96334.09;10547974;28;1047;-78
2023/09/03 00:22:23;;;;;;;;;;;;;;;16.32;100.00;96339.06;10549534;28;1421;-77
2023/09/03 00:27:26;;;;;;;;;;;;;;;16.21;100.00;96338.41;10547313;28;1993;-77
2023/09/03 00:32:28;;;;;;;;;;;;;;;16.24;100.00;96328.91;10549680;28;1008;-78
2023/09/03 00:37:31;;;;;;;;;;;;;;;16.17;100.00;96326.56;10544333;28;1301;-78
2023/09/03 00:42:34;;;;;;;;;;;;;;;16.08;100.00;96331.03;10545839;28;4584;-79
2023/09/03 00:47:37;;;;;;;;;;;;;;;16.07;100.00;96325.91;10551383;28;3141;-80
2023/09/03 00:52:39;;;;;;;;;;;;;;;16.01;100.00;96324.38;10549635;28;1548;-79
2023/09/03 00:57:41;;;;;;;;;;;;;;;15.90;100.00;96326.41;10539602;28;1627;-78
2023/09/03 01:02:44;;;;;;;;;;;;;;;15.87;100.00;96325.13;10534905;28;1114;-77
2023/09/03 01:07:46;;;;;;;;;;;;;;;15.88;100.00;96334.06;10552183;28;1988;-78
2023/09/03 01:12:49;;;;;;;;;;;;;;;15.79;100.00;96331.22;10549268;28;1458;-78
2023/09/03 01:17:51;;;;;;;;;;;;;;;15.77;100.00;96335.28;10555409;28;987;-79
2023/09/03 01:22:53;;;;;;;;;;;;;;;15.77;100.00;96344.22;10552459;28;1556;-77
2023/09/03 01:27:56;;;;;;;;;;;;;;;15.74;100.00;96349.44;10532107;28;1983;-78
2023/09/03 01:32:58;;;;;;;;;;;;;;;15.78;100.00;96347.78;10546720;28;1023;-78
2023/09/03 01:38:01;;;;;;;;;;;;;;;15.74;100.00;96344.03;10547321;28;1433;-78
2023/09/03 01:43:03;;;;;;;;;;;;;;;15.76;100.00;96353.47;10541007;28;4535;-78
2023/09/03 01:48:06;;;;;;;;;;;;;;;15.74;100.00;96344.81;10549415;28;1913;-77
2023/09/03 01:53:09;;;;;;;;;;;;;;;15.70;100.00;96345.69;10545249;28;1556;-79
2023/09/03 01:58:11;;;;;;;;;;;;;;;15.64;100.00;96351.19;10547673;28;1561;-79
2023/09/03 02:03:14;;;;;;;;;;;;;;;15.60;100.00;96350.13;10543725;28;1185;-78
2023/09/03 02:08:16;;;;;;;;;;;;;;;15.68;100.00;96352.22;10546748;28;1895;-79
2023/09/03 02:13:18;;;;;;;;;;;;;;;15.71;100.00;96350.81;10551026;28;1540;-78
2023/09/03 02:18:21;;;;;;;;;;;;;;;15.81;100.00;96361.53;10546439;28;990;-78
2023/09/03 02:23:24;;;;;;;;;;;;;;;15.76;100.00;96358.06;10546084;28;1516;-77
2023/09/03 02:28:26;;;;;;;;;;;;;;;15.83;100.00;96358.53;10546974;28;1981;-79
2023/09/03 02:33:28;;;;;;;;;;;;;;;15.71;100.00;96356.22;10546512;28;1039;-76
2023/09/03 02:38:31;;;;;;;;;;;;;;;15.75;100.00;96361.88;10564369;28;1574;-74
2023/09/03 02:43:33;;;;;;;;;;;;;;;15.70;100.00;96353.81;10576251;28;1528;-76
2023/09/03 02:48:36;;;;;;;;;;;;;;;15.65;100.00;96358.22;10578046;28;1968;-77
2023/09/03 02:53:38;;;;;;;;;;;;;;;15.66;100.00;96364.47;10551888;28;924;-77
2023/09/03 02:58:40;;;;;;;;;;;;;;;15.56;100.00;96365.34;10584608;28;1540;-78
2023/09/03 03:03:43;;;;;;;;;;;;;;;15.56;100.00;96372.69;10576123;28;1173;-77
2023/09/03 03:08:45;;;;;;;;;;;;;;;15.62;100.00;96377.78;10592717;28;1910;-78
2023/09/03 03:13:48;;;;;;;;;;;;;;;15.57;100.00;96383.22;10580578;28;1381;-79
2023/09/03 03:18:50;;;;;;;;;;;;;;;15.52;100.00;96394.13;10555229;28;1302;-75
2023/09/03 03:23:53;;;;;;;;;;;;;;;15.53;100.00;96398.47;10570239;28;1421;-75
2023/09/03 03:28:55;;;;;;;;;;;;;;;15.46;100.00;96403.44;10567597;28;1929;-77
2023/09/03 03:33:57;;;;;;;;;;;;;;;15.42;100.00;96405.09;10569581;28;1055;-77
2023/09/03 03:39:00;;;;;;;;;;;;;;;15.35;100.00;96404.63;10570792;28;1385;-77
2023/09/03 03:44:02;;;;;;;;;;;;;;;15.44;100.00;96402.88;10566897;28;4528;-77
2023/09/03 03:49:05;;;;;;;;;;;;;;;15.33;100.00;96407.63;10539564;28;1975;-77
2023/09/03 03:54:07;;;;;;;;;;;;;;;15.24;100.00;96408.53;10555691;28;1011;-76
2023/09/03 03:59:10;;;;;;;;;;;;;;;15.30;100.00;96405.50;10545898;28;1306;-79
2023/09/03 04:04:12;;;;;;;;;;;;;;;15.28;100.00;96402.28;10550787;28;1227;-78
2023/09/03 04:09:14;;;;;;;;;;;;;;;15.22;100.00;96392.59;10552232;28;1926;-79
2023/09/03 04:14:17;;;;;;;;;;;;;;;15.22;100.00;96402.63;10542032;28;1385;-78
2023/09/03 04:19:19;;;;;;;;;;;;;;;15.21;100.00;96401.00;10536438;28;1162;-78
2023/09/03 04:24:22;;;;;;;;;;;;;;;15.13;100.00;96414.06;10547439;28;1346;-78
2023/09/03 04:29:24;;;;;;;;;;;;;;;15.16;100.00;96428.13;10551524;28;1979;-78
2023/09/03 04:34:27;;;;;;;;;;;;;;;15.29;100.00;96443.69;10549612;28;2238;-78
2023/09/03 04:39:29;;;;;;;;;;;;;;;15.27;100.00;96440.44;10538245;28;1604;-78
2023/09/03 04:44:32;;;;;;;;;;;;;;;15.26;100.00;96442.34;10539623;28;4540;-78
2023/09/03 04:49:34;;;;;;;;;;;;;;;15.36;100.00;96446.88;10547673;28;1909;-79
2023/09/03 04:54:36;;;;;;;;;;;;;;;15.52;100.00;96455.63;10540617;28;1535;-77
2023/09/03 04:59:39;;;;;;;;;;;;;;;15.63;100.00;96460.69;10545112;28;1506;-77
2023/09/03 05:04:41;;;;;;;;;;;;;;;15.65;100.00;96466.63;10553625;28;1067;-78
2023/09/03 05:09:44;;;;;;;;;;;;;;;15.81;100.00;96471.88;10543509;28;1985;-78
2023/09/03 05:14:46;;;;;;;;;;;;;;;15.81;100.00;96474.56;10540411;28;1393;-78
2023/09/03 05:19:48;;;;;;;;;;;;;;;15.90;100.00;96478.25;10549284;28;1148;-78
2023/09/03 05:24:51;;;;;;;;;;;;;;;16.13;100.00;96472.00;10543210;28;1409;-78
2023/09/03 05:29:53;;;;;;;;;;;;;;;16.24;100.00;96482.72;10548706;28;2463;-78
2023/09/03 05:34:56;;;;;;;;;;;;;;;16.41;100.00;96478.41;10544071;28;1469;-77
2023/09/03 05:39:58;;;;;;;;;;;;;;;16.44;100.00;96494.09;10541323;28;1522;-78
2023/09/03 05:45:00;;;;;;;;;;;;;;;16.46;100.00;96504.63;10543342;28;4485;-77
2023/09/03 05:50:03;;;;;;;;;;;;;;;16.57;100.00;96503.41;10541012;28;1989;-77
2023/09/03 05:55:05;;;;;;;;;;;;;;;16.68;100.00;96496.72;10552501;28;1412;-78
2023/09/03 06:00:08;;;;;;;;;;;;;;;16.86;100.00;96499.72;10544276;28;1440;-77
2023/09/03 06:05:10;;;;;;;;;;;;;;;17.10;100.00;96500.41;10548455;28;1412;-77
2023/09/03 06:10:12;;;;;;;;;;;;;;;17.13;100.00;96499.03;10545785;28;1976;-77
2023/09/03 06:15:15;;;;;;;;;;;;;;;17.27;100.00;96502.59;10538614;28;1444;-78
2023/09/03 06:20:17;;;;;;;;;;;;;;;17.40;100.00;96509.16;10544471;28;1429;-77
2023/09/03 06:25:20;;;;;;;;;;;;;;;17.59;100.00;96512.59;10558142;28;2317;-78
2023/09/03 06:30:22;;;;;;;;;;;;;;;17.75;100.00;96500.38;10528676;28;1980;-78
2023/09/03 06:35:25;;;;;;;;;;;;;;;17.83;100.00;96488.78;10546445;28;1378;-78
2023/09/03 06:40:27;;;;;;;;;;;;;;;18.21;100.00;96493.19;10549083;28;1152;-78
2023/09/03 06:45:30;;;;;;;;;;;;;;;18.65;100.00;96484.31;10540140;28;4516;-77
2023/09/03 06:50:32;;;;;;;;;;;;;;;18.88;100.00;96496.84;10545194;28;1910;-78
2023/09/03 06:55:35;;;;;;;;;;;;;;;19.36;100.00;96504.41;10546969;28;1377;-79
2023/09/03 07:00:37;;;;;;;;;;;;;;;19.43;100.00;96507.50;10541073;28;1377;-77
2023/09/03 07:05:40;;;;;;;;;;;;;;;20.16;100.00;96507.16;10543950;28;1405;-79
2023/09/03 07:10:42;;;;;;;;;;;;;;;20.21;100.00;96512.47;10554165;28;1918;-80
2023/09/03 07:15:44;;;;;;;;;;;;;;;20.36;100.00;96520.25;10552139;28;1559;-79
2023/09/03 07:20:47;;;;;;;;;;;;;;;20.76;100.00;96531.09;10545914;28;2285;-77
2023/09/03 07:25:49;;;;;;;;;;;;;;;20.94;100.00;96540.91;10536913;28;1090;-79
2023/09/03 07:30:51;;;;;;;;;;;;;;;21.54;100.00;96553.75;10549416;28;1976;-78
2023/09/03 07:35:54;;;;;;;;;;;;;;;21.54;100.00;96561.94;10559088;28;1397;-78
2023/09/03 07:40:56;;;;;;;;;;;;;;;21.58;100.00;96560.19;10555620;28;4826;-76
2023/09/03 07:45:59;;;;;;;;;;;;;;;21.67;100.00;96559.34;10542571;28;1500;-79
2023/09/03 07:51:01;;;;;;;;;;;;;;;21.51;100.00;96559.06;10539872;28;1906;-77
2023/09/03 07:56:04;;;;;;;;;;;;;;;22.08;100.00;96554.06;10548812;28;1087;-79
2023/09/03 08:01:06;;;;;;;;;;;;;;;22.56;100.00;96563.84;10549677;28;1728;-78
2023/09/03 08:06:08;;;;;;;;;;;;;;;22.42;100.00;96570.69;10559749;28;1436;-78
2023/09/03 08:11:11;;;;;;;;;;;;;;;23.05;100.00;96566.94;10551177;28;1976;-77
2023/09/03 08:16:13;;;;;;;;;;;;;;;23.06;100.00;96562.25;10544351;28;2431;-78
2023/09/03 08:21:16;;;;;;;;;;;;;;;23.44;100.00;96545.63;10548310;28;1615;-79
2023/09/03 08:26:19;;;;;;;;;;;;;;;23.64;100.00;96553.03;10552798;28;1568;-78
2023/09/03 08:31:21;;;;;;;;;;;;;;;23.33;100.00;96569.09;10557482;28;2098;-78
2023/09/03 08:36:24;;;;;;;;;;;;;;;22.79;100.00;96563.53;10552319;28;1374;-78
2023/09/03 08:41:27;;;;;;;;;;;;;;;23.19;100.00;96558.41;10539234;28;4567;-79
2023/09/03 08:46:29;;;;;;;;;;;;;;;23.95;100.00;96548.97;10541240;28;1136;-78
2023/09/03 08:51:32;;;;;;;;;;;;;;;23.92;100.00;96563.38;10546232;28;1913;-77
2023/09/03 08:56:34;;;;;;;;;;;;;;;23.88;100.00;96565.22;10545086;28;1486;-77
2023/09/03 09:01:37;;;;;;;;;;;;;;;24.19;100.00;96565.50;10550657;28;1180;-77
2023/09/03 09:06:41;;;;;;;;;;;;;;;24.51;100.00;96554.75;10551901;28;1440;-78
2023/09/03 09:11:43;;;;;;;;;;;;;;;24.43;100.00;96563.91;10537681;28;1914;-78
2023/09/03 09:16:46;;;;;;;;;;;;;;;24.44;100.00;96560.03;10548708;28;1220;-77
2023/09/03 09:21:48;;;;;;;;;;;;;;;24.30;100.00;96562.28;10550791;28;1476;-79
2023/09/03 09:26:50;;;;;;;;;;;;;;;24.32;100.00;96566.28;10552254;28;1463;-77
2023/09/03 09:31:53;;;;;;;;;;;;;;;24.35;100.00;96575.81;10553023;28;1914;-77
2023/09/03 09:36:55;;;;;;;;;;;;;;;24.65;100.00;96588.19;10526141;28;1394;-76
2023/09/03 09:41:58;;;;;;;;;;;;;;;24.52;100.00;96589.34;10539644;28;4567;-77
2023/09/03 09:47:00;;;;;;;;;;;;;;;24.32;100.00;96596.53;10545739;28;1284;-79
2023/09/03 09:52:03;;;;;;;;;;;;;;;24.74;100.00;96601.81;10546089;28;1910;-76
2023/09/03 09:57:05;;;;;;;;;;;;;;;24.79;100.00;96594.13;10552794;28;1385;-78
2023/09/03 10:02:07;;;;;;;;;;;;;;;24.49;100.00;96596.34;10542831;28;1118;-77
2023/09/03 10:07:10;;;;;;;;;;;;;;;24.61;100.00;96587.25;10532599;28;1353;-77
2023/09/03 10:12:12;;;;;;;;;;;;;;;24.66;100.00;96597.22;10520926;28;1910;-77
2023/09/03 10:17:15;;;;;;;;;;;;;;;24.44;100.00;96593.81;10549526;28;1429;-77
2023/09/03 10:22:18;;;;;;;;;;;;;;;24.41;100.00;96599.19;10552457;28;1168;-77
2023/09/03 10:27:21;;;;;;;;;;;;;;;24.27;100.00;96589.28;10542758;28;1361;-78
2023/09/03 10:32:24;;;;;;;;;;;;;;;24.04;100.00;96584.56;10536704;28;1960;-78
2023/09/03 10:37:26;;;;;;;;;;;;;;;24.51;100.00;96583.03;10546460;28;1358;-76
2023/09/03 10:42:29;;;;;;;;;;;;;;;25.00;100.00;96580.25;10549678;28;4709;-77
2023/09/03 10:47:32;;;;;;;;;;;;;;;25.14;100.00;96582.66;10548662;28;1530;-78
2023/09/03 10:52:35;;;;;;;;;;;;;;;24.73;100.00;96592.75;10548037;28;1913;-78
2023/09/03 10:57:37;;;;;;;;;;;;;;;25.02;100.00;96588.16;10538101;28;1373;-78
2023/09/03 11:02:40;;;;;;;;;;;;;;;24.76;100.00;96588.53;10544320;28;1039;-78
2023/09/03 11:07:51;;;;;;;;;;;;;;;24.74;100.00;96597.09;10547595;28;2439;-78
2023/09/03 11:12:53;;;;;;;;;;;;;;;24.93;100.00;96582.75;10546158;28;1909;-78
2023/09/03 11:17:56;;;;;;;;;;;;;;;24.97;100.00;96588.38;10555117;28;1492;-78
2023/09/03 11:22:58;;;;;;;;;;;;;;;25.57;100.00;96584.66;10539768;28;1602;-78
2023/09/03 11:28:01;;;;;;;;;;;;;;;24.74;100.00;96577.84;10550826;28;1628;-79
2023/09/03 11:33:08;;;;;;;;;;;;;;;24.76;100.00;96583.84;10556509;28;1975;-79
2023/09/03 11:38:10;;;;;;;;;;;;;;;24.70;100.00;96587.97;10549483;28;1575;-77
2023/09/03 11:43:12;;;;;;;;;;;;;;;24.97;100.00;96588.38;10552864;28;4591;-78
2023/09/03 11:48:15;;;;;;;;;;;;;;;25.48;100.00;96580.47;10545906;28;1004;-77
2023/09/03 11:53:17;;;;;;;;;;;;;;;26.03;100.00;96576.88;10550620;28;1914;-78
2023/09/03 11:58:20;;;;;;;;;;;;;;;25.57;100.00;96581.09;10553698;28;1393;-78
2023/09/03 12:03:23;;;;;;;;;;;;;;;24.86;100.00;96592.75;10553286;28;2431;-79
2023/09/03 12:08:26;;;;;;;;;;;;;;;25.41;100.00;96586.56;10555618;28;1333;-79
2023/09/03 12:13:28;;;;;;;;;;;;;;;25.41;100.00;96586.56;10545042;28;1957;-79
2023/09/03 12:18:31;;;;;;;;;;;;;;;25.12;100.00;96582.19;10541559;28;1176;-78
2023/09/03 12:23:34;;;;;;;;;;;;;;;25.93;100.00;96579.34;10538511;28;1345;-77
2023/09/03 12:28:37;;;;;;;;;;;;;;;25.36;100.00;96578.56;10549547;28;1413;-77
2023/09/03 12:33:39;;;;;;;;;;;;;;;25.41;100.00;96572.00;10551595;28;1918;-77
2023/09/03 12:38:42;;;;;;;;;;;;;;;25.08;100.00;96586.78;10553595;28;1365;-76
2023/09/03 12:43:44;;;;;;;;;;;;;;;25.04;100.00;96580.34;10546918;28;1361;-76
2023/09/03 12:48:47;;;;;;;;;;;;;;;25.54;100.00;96574.34;10548621;28;1087;-79
2023/09/03 12:53:49;;;;;;;;;;;;;;;26.24;100.00;96581.34;10550218;28;1922;-77
2023/09/03 12:58:52;;;;;;;;;;;;;;;25.92;100.00;96575.00;10555560;28;2279;-77
2023/09/03 13:03:54;;;;;;;;;;;;;;;26.10;100.00;96568.00;10559123;28;1200;-79
2023/09/03 13:08:56;;;;;;;;;;;;;;;25.19;100.00;96563.13;10539963;28;1729;-78
2023/09/03 13:13:59;;;;;;;;;;;;;;;25.75;100.00;96551.34;10547206;28;1976;-78
2023/09/03 13:19:02;;;;;;;;;;;;;;;25.80;100.00;96553.84;10547217;28;1204;-77
2023/09/03 13:24:05;;;;;;;;;;;;;;;25.63;100.00;96551.38;10547289;28;1345;-77
2023/09/03 13:29:08;;;;;;;;;;;;;;;26.03;100.00;96540.28;10548952;28;1496;-77
2023/09/03 13:34:11;;;;;;;;;;;;;;;25.92;100.00;96544.72;10539453;28;1909;-77
2023/09/03 13:39:13;;;;;;;;;;;;;;;26.00;100.00;96535.47;10540050;28;1169;-78
2023/09/03 13:44:16;;;;;;;;;;;;;;;25.65;100.00;96544.38;10541804;28;4563;-78
2023/09/03 13:49:18;;;;;;;;;;;;;;;25.84;100.00;96549.25;10540512;28;1038;-77
2023/09/03 13:54:24;;;;;;;;;;;;;;;25.60;100.00;96550.13;10550878;28;1914;-79
2023/09/03 13:59:27;;;;;;;;;;;;;;;25.73;100.00;96546.19;10557499;28;1437;-79
2023/09/03 14:04:29;;;;;;;;;;;;;;;25.83;100.00;96548.44;10536675;28;1409;-76
2023/09/03 14:09:32;;;;;;;;;;;;;;;25.27;100.00;96539.38;10543119;28;1018;-78
2023/09/03 14:14:34;;;;;;;;;;;;;;;25.21;100.00;96555.34;10530857;28;1977;-78
2023/09/03 14:19:36;;;;;;;;;;;;;;;25.29;100.00;96534.31;10549791;28;1317;-78
2023/09/03 14:24:39;;;;;;;;;;;;;;;25.48;100.00;96541.94;10540726;28;1154;-77
2023/09/03 14:29:41;;;;;;;;;;;;;;;25.72;100.00;96547.31;10530413;28;1421;-77
2023/09/03 14:34:44;;;;;;;;;;;;;;;25.60;100.00;96539.13;10544639;28;1913;-77
2023/09/03 14:39:46;;;;;;;;;;;;;;;24.98;100.00;96537.72;10553703;28;1341;-78
2023/09/03 14:44:48;;;;;;;;;;;;;;;25.00;100.00;96530.75;10557627;28;1417;-78
2023/09/03 14:49:51;;;;;;;;;;;;;;;24.43;100.00;96530.94;10556721;28;2325;-78
2023/09/03 14:54:53;;;;;;;;;;;;;;;24.27;100.00;96523.34;10540384;28;2028;-78
2023/09/03 14:59:56;;;;;;;;;;;;;;;24.57;100.00;96523.16;10554474;28;1585;-77
2023/09/03 15:04:58;;;;;;;;;;;;;;;24.98;100.00;96530.28;10554449;28;1517;-78
2023/09/03 15:10:01;;;;;;;;;;;;;;;24.84;100.00;96523.56;10553741;28;1046;-78
2023/09/03 15:15:03;;;;;;;;;;;;;;;24.43;100.00;96525.44;10555452;28;1918;-78
2023/09/03 15:20:07;;;;;;;;;;;;;;;24.26;100.00;96530.00;10540875;28;1203;-78
2023/09/03 15:25:09;;;;;;;;;;;;;;;24.34;100.00;96522.00;10540032;28;1056;-79
2023/09/03 15:30:11;;;;;;;;;;;;;;;24.53;100.00;96524.97;10545096;28;1498;-77
2023/09/03 15:35:14;;;;;;;;;;;;;;;24.44;100.00;96524.31;10556461;28;2069;-77
2023/09/03 15:40:16;;;;;;;;;;;;;;;24.03;100.00;96534.34;10553427;28;1325;-78
2023/09/03 15:45:18;;;;;;;;;;;;;;;24.14;100.00;96538.25;10545644;28;4532;-78
2023/09/03 15:50:21;;;;;;;;;;;;;;;23.90;100.00;96557.44;10539966;28;2446;-76
2023/09/03 15:55:24;;;;;;;;;;;;;;;23.42;100.00;96548.69;10553005;28;1909;-78
2023/09/03 16:00:27;;;;;;;;;;;;;;;23.34;100.00;96557.00;10546946;28;1329;-77
2023/09/03 16:05:29;;;;;;;;;;;;;;;23.17;100.00;96561.50;10545165;28;1373;-78
2023/09/03 16:10:32;;;;;;;;;;;;;;;23.24;100.00;96558.22;10550123;28;939;-78
2023/09/03 16:15:34;;;;;;;;;;;;;;;23.12;100.00;96560.91;10530766;28;1985;-78
2023/09/03 16:20:37;;;;;;;;;;;;;;;23.03;100.00;96563.72;10545478;28;1314;-78
2023/09/03 16:25:39;;;;;;;;;;;;;;;22.88;100.00;96570.59;10551655;28;1113;-77
2023/09/03 16:30:42;;;;;;;;;;;;;;;22.90;100.00;96570.25;10550634;28;1917;-78
2023/09/03 16:35:44;;;;;;;;;;;;;;;22.66;100.00;96579.91;10556553;28;1405;-78
2023/09/03 16:40:47;;;;;;;;;;;;;;;22.46;100.00;96594.38;10550274;28;4489;-79
2023/09/03 16:45:49;;;;;;;;;;;;;;;22.55;100.00;96584.16;10528493;28;6311;-77
2023/09/03 16:50:53;;;;;;;;;;;;;;;22.45;100.00;96590.00;10547046;28;5286;-77
2023/09/03 16:55:55;;;;;;;;;;;;;;;22.27;100.00;96591.25;10550985;28;5289;-77
2023/09/03 17:00:58;;;;;;;;;;;;;;;22.02;100.00;96596.44;10555796;28;1571;-78
2023/09/03 17:06:00;;;;;;;;;;;;;;;21.91;100.00;96608.88;10535776;28;5662;-78
2023/09/03 17:11:03;;;;;;;;;;;;;;;21.85;100.00;96616.44;10547071;28;1918;-78
2023/09/03 17:16:05;;;;;;;;;;;;;;;21.68;100.00;96615.66;10549879;28;1547;-79
2023/09/03 17:21:08;;;;;;;;;;;;;;;21.46;100.00;96622.94;10548192;28;5246;-78
2023/09/03 17:26:10;;;;;;;;;;;;;;;21.34;100.00;96619.25;10558773;28;1365;-78
2023/09/03 17:31:29;;;;;;;;;;;;;;;21.12;100.00;96615.53;10550370;28;1899;-78
2023/09/03 17:36:32;;;;;;;;;;;;;;;20.97;100.00;96622.25;10546488;28;1392;-79
2023/09/03 17:41:35;;;;;;;;;;;;;;;20.81;100.00;96618.38;10542768;28;1531;-79
2023/09/03 17:46:37;;;;;;;;;;;;;;;20.62;100.00;96620.59;10547809;28;1377;-78
2023/09/03 17:51:39;;;;;;;;;;;;;;;20.44;100.00;96620.50;10557780;28;1973;-78
2023/09/03 17:56:42;;;;;;;;;;;;;;;20.35;100.00;96633.28;10544078;28;6384;-78
2023/09/03 18:01:44;;;;;;;;;;;;;;;20.24;100.00;96632.78;10544174;28;1216;-78
2023/09/03 18:06:49;;;;;;;;;;;;;;;20.13;100.00;96641.56;10547666;28;1330;-78
2023/09/03 18:11:51;;;;;;;;;;;;;;;19.92;100.00;96644.81;10548187;28;1914;-78
2023/09/03 18:16:54;;;;;;;;;;;;;;;19.82;100.00;96649.72;10542076;28;1106;-78
2023/09/03 18:21:56;;;;;;;;;;;;;;;19.65;100.00;96656.66;10546583;28;1416;-78
2023/09/03 18:26:59;;;;;;;;;;;;;;;19.53;100.00;96663.75;10539473;28;1381;-78
2023/09/03 18:32:01;;;;;;;;;;;;;;;19.34;100.00;96663.94;10547588;28;1989;-78
2023/09/03 18:37:03;;;;;;;;;;;;;;;19.20;100.00;96674.88;10541393;28;1412;-78
2023/09/03 18:42:06;;;;;;;;;;;;;;;19.05;100.00;96673.31;10549385;28;1397;-78
2023/09/03 18:47:08;;;;;;;;;;;;;;;18.94;100.00;96682.00;10549884;28;1117;-78
2023/09/03 18:52:11;;;;;;;;;;;;;;;18.81;100.00;96684.44;10542855;28;1981;-78
2023/09/03 18:57:13;;;;;;;;;;;;;;;18.74;100.00;96685.94;10522100;28;5415;-78
2023/09/03 19:02:19;;;;;;;;;;;;;;;18.70;100.00;96691.19;10550177;28;1059;-77
2023/09/03 19:07:21;;;;;;;;;;;;;;;18.54;100.00;96687.13;10546903;28;1479;-77
2023/09/03 19:12:24;;;;;;;;;;;;;;;18.55;100.00;96688.75;10546469;28;1909;-77
2023/09/03 19:17:27;;;;;;;;;;;;;;;18.50;100.00;96689.66;10537404;28;1154;-78
2023/09/03 19:22:29;;;;;;;;;;;;;;;18.42;100.00;96703.16;10546718;28;1408;-77
2023/09/03 19:27:32;;;;;;;;;;;;;;;18.41;100.00;96701.56;10523767;28;1364;-78
2023/09/03 19:32:34;;;;;;;;;;;;;;;18.23;100.00;96712.19;10535248;28;1918;-77
2023/09/03 19:37:37;;;;;;;;;;;;;;;18.17;100.00;96710.66;10559674;28;1448;-79
2023/09/03 19:42:41;;;;;;;;;;;;;;;18.06;100.00;96714.66;10557276;28;1425;-79
2023/09/03 19:47:54;;;;;;;;;;;;;;;18.11;100.00;96706.44;10538839;28;2318;-79
2023/09/03 19:52:56;;;;;;;;;;;;;;;18.11;100.00;96711.88;10547220;28;5177;-79
2023/09/03 19:57:59;;;;;;;;;;;;;;;18.14;100.00;96724.09;10536317;28;1444;-77
2023/09/03 20:03:01;;;;;;;;;;;;;;;18.01;100.00;96726.47;10558057;28;1087;-77
2023/09/03 20:08:04;;;;;;;;;;;;;;;18.00;100.00;96734.91;10562493;28;1644;-78
2023/09/03 20:13:07;;;;;;;;;;;;;;;17.91;100.00;96736.69;10536361;28;1918;-78
2023/09/03 20:18:10;;;;;;;;;;;;;;;17.69;100.00;96743.53;10550269;28;1237;-78
2023/09/03 20:23:12;;;;;;;;;;;;;;;17.65;100.00;96738.97;10549212;28;1341;-78
2023/09/03 20:28:15;;;;;;;;;;;;;;;17.48;100.00;96721.28;10552297;28;1369;-79
2023/09/03 20:33:17;;;;;;;;;;;;;;;17.39;100.00;96717.63;10558760;28;1922;-77
2023/09/03 20:38:21;;;;;;;;;;;;;;;17.34;100.00;96719.59;10538747;28;1416;-77
2023/09/03 20:43:26;;;;;;;;;;;;;;;17.22;100.00;96720.81;10542258;28;2290;-78
2023/09/03 20:48:28;;;;;;;;;;;;;;;17.19;100.00;96705.13;10552520;28;1469;-78
2023/09/03 20:53:31;;;;;;;;;;;;;;;17.10;100.00;96706.06;10551617;28;1937;-79
2023/09/03 20:58:35;;;;;;;;;;;;;;;17.03;100.00;96707.22;10554137;28;1430;-78
2023/09/03 21:03:39;;;;;;;;;;;;;;;16.92;100.00;96692.19;10538732;28;1499;-78
2023/09/03 21:08:41;;;;;;;;;;;;;;;16.86;100.00;96696.06;10546082;27;1397;-79
2023/09/03 21:13:44;;;;;;;;;;;;;;;16.77;100.00;96688.84;10534531;28;1902;-78
2023/09/03 21:18:47;;;;;;;;;;;;;;;16.75;100.00;96689.94;10546316;28;1213;-79
2023/09/03 21:23:49;;;;;;;;;;;;;;;16.75;100.00;96691.84;10555948;28;1445;-77
2023/09/03 21:28:51;;;;;;;;;;;;;;;16.72;100.00;96695.13;10547249;28;1432;-78
2023/09/03 21:33:54;;;;;;;;;;;;;;;16.66;100.00;96691.63;10534789;28;1952;-78
2023/09/03 21:38:56;;;;;;;;;;;;;;;16.55;100.00;96692.88;10537687;28;2554;-78
2023/09/03 21:43:59;;;;;;;;;;;;;;;16.52;100.00;96689.91;10544664;28;1334;-79
2023/09/03 21:49:01;;;;;;;;;;;;;;;16.48;100.00;96689.72;10550707;28;1199;-78
2023/09/03 21:54:04;;;;;;;;;;;;;;;16.32;100.00;96686.34;10542590;28;5002;-79
2023/09/03 21:59:06;;;;;;;;;;;;;;;16.27;100.00;96682.88;10535285;28;1361;-78
2023/09/03 22:04:09;;;;;;;;;;;;;;;16.21;100.00;96692.97;10553707;28;1003;-77
2023/09/03 22:09:11;;;;;;;;;;;;;;;16.26;100.00;96700.25;10551565;28;1322;-77
2023/09/03 22:14:13;;;;;;;;;;;;;;;16.21;100.00;96704.63;10547857;28;1985;-78
2023/09/03 22:19:16;;;;;;;;;;;;;;;16.19;100.00;96703.28;10551139;28;1125;-77
2023/09/03 22:24:27;;;;;;;;;;;;;;;16.13;100.00;96697.09;10541394;28;1516;-79
2023/09/03 22:29:30;;;;;;;;;;;;;;;16.11;100.00;96702.03;10546023;28;1293;-78
2023/09/03 22:34:32;;;;;;;;;;;;;;;16.00;100.00;96702.41;10546286;28;2475;-77
2023/09/03 22:39:37;;;;;;;;;;;;;;;15.94;100.00;96701.63;10548081;28;1588;-78
2023/09/03 22:44:39;;;;;;;;;;;;;;;15.88;100.00;96695.44;10555013;28;1349;-77
2023/09/03 22:49:42;;;;;;;;;;;;;;;15.84;100.00;96696.28;10552787;28;1440;-77
2023/09/03 22:54:45;;;;;;;;;;;;;;;15.83;100.00;96694.69;10547213;28;5062;-77
2023/09/03 22:59:47;;;;;;;;;;;;;;;15.81;100.00;96705.81;10557650;28;1389;-78
2023/09/03 23:04:50;;;;;;;;;;;;;;;15.80;100.00;96701.47;10550732;28;1428;-78
2023/09/03 23:09:52;;;;;;;;;;;;;;;15.77;100.00;96695.81;10551595;28;1158;-77
2023/09/03 23:14:55;;;;;;;;;;;;;;;15.88;100.00;96691.94;10559859;28;1973;-78
2023/09/03 23:19:57;;;;;;;;;;;;;;;15.91;100.00;96691.38;10542673;28;1029;-77
2023/09/03 23:25:00;;;;;;;;;;;;;;;15.94;100.00;96690.78;10555768;28;1569;-77
2023/09/03 23:30:02;;;;;;;;;;;;;;;15.86;100.00;96694.13;10545221;28;2403;-77
2023/09/03 23:35:05;;;;;;;;;;;;;;;15.77;100.00;96695.81;10552854;28;1914;-77
2023/09/03 23:40:08;;;;;;;;;;;;;;;15.72;100.00;96695.88;10553706;28;1579;-78
2023/09/03 23:45:11;;;;;;;;;;;;;;;15.75;100.00;96696.09;10551306;28;1485;-78
2023/09/03 23:50:13;;;;;;;;;;;;;;;15.70;100.00;96706.97;10544742;28;1599;-78
2023/09/03 23:55:15;;;;;;;;;;;;;;;15.71;100.00;96697.75;10549642;28;5006;-79
